createdAt,value
2018-03-03T00:00:05.957Z,959.48
2018-03-03T00:01:05.862Z,959.47
2018-03-03T00:02:05.780Z,959.48
2018-03-03T00:03:05.689Z,959.48
2018-03-03T00:04:05.612Z,959.51
2018-03-03T00:05:05.526Z,959.50
2018-03-03T00:06:05.445Z,959.49
2018-03-03T00:07:05.355Z,959.52
2018-03-03T00:08:05.275Z,959.51
2018-03-03T00:09:05.189Z,959.54
2018-03-03T00:10:05.107Z,959.52
2018-03-03T00:11:05.016Z,959.55
2018-03-03T00:12:04.940Z,959.57
2018-03-03T00:13:04.846Z,959.57
2018-03-03T00:14:04.776Z,959.54
2018-03-03T00:15:04.685Z,959.57
2018-03-03T00:16:04.603Z,959.58
2018-03-03T00:17:04.514Z,959.59
2018-03-03T00:18:04.433Z,959.61
2018-03-03T00:19:04.344Z,959.59
2018-03-03T00:20:04.265Z,959.62
2018-03-03T00:21:04.175Z,959.61
2018-03-03T00:22:04.095Z,959.58
2018-03-03T00:23:04.008Z,959.58
2018-03-03T00:24:03.927Z,959.61
2018-03-03T00:25:03.838Z,959.56
2018-03-03T00:26:03.764Z,959.60
2018-03-03T00:27:03.673Z,959.62
2018-03-03T00:28:03.589Z,959.60
2018-03-03T00:29:03.499Z,959.58
2018-03-03T00:30:03.426Z,959.53
2018-03-03T00:31:03.331Z,959.53
2018-03-03T00:32:03.255Z,959.56
2018-03-03T00:33:03.164Z,959.52
2018-03-03T00:34:03.086Z,959.54
2018-03-03T00:35:03.006Z,959.52
2018-03-03T00:36:02.921Z,959.56
2018-03-03T00:37:02.826Z,959.60
2018-03-03T00:38:02.747Z,959.60
2018-03-03T00:39:02.654Z,959.61
2018-03-03T00:40:02.593Z,959.63
2018-03-03T00:41:02.522Z,959.68
2018-03-03T00:42:02.412Z,959.65
2018-03-03T00:43:02.322Z,959.77
2018-03-03T00:44:02.242Z,959.77
2018-03-03T00:45:02.149Z,959.76
2018-03-03T00:46:02.075Z,959.77
2018-03-03T00:47:01.982Z,959.77
2018-03-03T00:48:01.908Z,959.75
2018-03-03T00:49:01.820Z,959.74
2018-03-03T00:50:01.746Z,959.71
2018-03-03T00:51:01.646Z,959.70
2018-03-03T00:52:01.575Z,959.66
2018-03-03T00:53:01.477Z,959.66
2018-03-03T00:54:01.403Z,959.68
2018-03-03T00:55:01.311Z,959.69
2018-03-03T00:56:01.233Z,959.71
2018-03-03T00:57:01.140Z,959.77
2018-03-03T00:58:01.067Z,959.78
2018-03-03T00:59:00.971Z,959.78
2018-03-03T01:00:00.889Z,959.75
2018-03-03T01:01:00.808Z,959.79
2018-03-03T01:02:00.722Z,959.77
2018-03-03T01:03:00.644Z,959.85
2018-03-03T01:04:00.552Z,959.83
2018-03-03T01:05:00.475Z,959.81
2018-03-03T01:06:00.381Z,959.78
2018-03-03T01:07:00.306Z,959.74
2018-03-03T01:08:00.215Z,959.65
2018-03-03T01:09:00.139Z,959.65
2018-03-03T01:10:00.044Z,959.60
2018-03-03T01:10:59.968Z,959.65
2018-03-03T01:11:59.875Z,959.67
2018-03-03T01:12:59.800Z,959.69
2018-03-03T01:13:59.714Z,959.70
2018-03-03T01:14:59.637Z,959.70
2018-03-03T01:15:59.541Z,959.72
2018-03-03T01:16:59.466Z,959.73
2018-03-03T01:17:59.371Z,959.71
2018-03-03T01:18:59.295Z,959.62
2018-03-03T01:19:59.203Z,959.58
2018-03-03T01:20:59.125Z,959.63
2018-03-03T01:21:59.035Z,959.62
2018-03-03T01:22:58.962Z,959.65
2018-03-03T01:23:58.863Z,959.66
2018-03-03T01:24:58.784Z,959.71
2018-03-03T01:25:58.695Z,959.69
2018-03-03T01:26:58.618Z,959.71
2018-03-03T01:27:58.530Z,959.73
2018-03-03T01:28:58.451Z,959.76
2018-03-03T01:29:58.359Z,959.77
2018-03-03T01:30:58.280Z,959.73
2018-03-03T01:31:58.196Z,959.72
2018-03-03T01:32:58.105Z,959.74
2018-03-03T01:33:58.026Z,959.78
2018-03-03T01:34:57.938Z,959.82
2018-03-03T01:35:57.859Z,959.86
2018-03-03T01:36:57.768Z,959.86
2018-03-03T01:37:57.690Z,959.87
2018-03-03T01:38:57.601Z,959.89
2018-03-03T01:39:57.521Z,959.91
2018-03-03T01:40:57.431Z,959.91
2018-03-03T01:41:57.352Z,959.88
2018-03-03T01:42:57.261Z,959.86
2018-03-03T01:43:57.186Z,959.85
2018-03-03T01:44:57.095Z,959.84
2018-03-03T01:45:57.015Z,959.85
2018-03-03T01:46:56.924Z,959.83
2018-03-03T01:47:56.847Z,959.82
2018-03-03T01:48:56.755Z,959.73
2018-03-03T01:49:56.679Z,959.70
2018-03-03T01:50:56.584Z,959.68
2018-03-03T01:51:56.508Z,959.67
2018-03-03T01:52:56.418Z,959.66
2018-03-03T01:53:56.343Z,959.62
2018-03-03T01:54:56.248Z,959.51
2018-03-03T01:55:56.171Z,959.53
2018-03-03T01:56:56.083Z,959.51
2018-03-03T01:57:56.004Z,959.54
2018-03-03T01:58:55.912Z,959.55
2018-03-03T01:59:55.833Z,959.58
2018-03-03T02:00:55.744Z,959.61
2018-03-03T02:01:55.665Z,959.58
2018-03-03T02:02:55.573Z,959.57
2018-03-03T02:03:55.497Z,959.56
2018-03-03T02:04:55.407Z,959.59
2018-03-03T02:05:55.327Z,959.64
2018-03-03T02:06:55.236Z,959.65
2018-03-03T02:07:55.160Z,959.61
2018-03-03T02:08:55.072Z,959.55
2018-03-03T02:09:54.988Z,959.56
2018-03-03T02:10:54.899Z,959.54
2018-03-03T02:11:54.823Z,959.52
2018-03-03T02:12:54.728Z,959.52
2018-03-03T02:13:54.658Z,959.53
2018-03-03T02:14:54.563Z,959.50
2018-03-03T02:15:54.484Z,959.52
2018-03-03T02:16:54.394Z,959.56
2018-03-03T02:17:54.312Z,959.57
2018-03-03T02:18:54.226Z,959.53
2018-03-03T02:19:54.141Z,959.54
2018-03-03T02:20:54.057Z,959.57
2018-03-03T02:21:53.975Z,959.60
2018-03-03T02:22:53.884Z,959.60
2018-03-03T02:23:53.808Z,959.60
2018-03-03T02:24:53.718Z,959.60
2018-03-03T02:25:53.641Z,959.61
2018-03-03T02:26:53.549Z,959.55
2018-03-03T02:27:53.470Z,959.52
2018-03-03T02:28:53.383Z,959.50
2018-03-03T02:29:53.301Z,959.49
2018-03-03T02:30:53.209Z,959.47
2018-03-03T02:31:53.138Z,959.43
2018-03-03T02:32:53.042Z,959.39
2018-03-03T02:33:52.967Z,959.38
2018-03-03T02:34:52.872Z,959.35
2018-03-03T02:35:52.794Z,959.33
2018-03-03T02:36:52.706Z,959.35
2018-03-03T02:37:52.625Z,959.32
2018-03-03T02:38:52.537Z,959.27
2018-03-03T02:39:52.458Z,959.23
2018-03-03T02:40:52.367Z,959.23
2018-03-03T02:41:52.288Z,959.20
2018-03-03T02:42:52.193Z,959.17
2018-03-03T02:43:52.119Z,959.22
2018-03-03T02:44:52.028Z,959.24
2018-03-03T02:45:51.948Z,959.28
2018-03-03T02:46:51.856Z,959.33
2018-03-03T02:47:51.783Z,959.32
2018-03-03T02:48:51.690Z,959.30
2018-03-03T02:49:51.610Z,959.28
2018-03-03T02:50:51.521Z,959.26
2018-03-03T02:51:51.439Z,959.27
2018-03-03T02:52:51.351Z,959.30
2018-03-03T02:53:51.273Z,959.31
2018-03-03T02:54:51.181Z,959.34
2018-03-03T02:55:51.103Z,959.33
2018-03-03T02:56:51.012Z,959.36
2018-03-03T02:57:50.934Z,959.38
2018-03-03T02:58:50.846Z,959.36
2018-03-03T02:59:50.763Z,959.34
2018-03-03T03:00:50.676Z,959.33
2018-03-03T03:01:50.597Z,959.36
2018-03-03T03:02:50.504Z,959.37
2018-03-03T03:03:50.430Z,959.33
2018-03-03T03:04:50.334Z,959.27
2018-03-03T03:05:50.261Z,959.28
2018-03-03T03:06:50.171Z,959.24
2018-03-03T03:07:50.096Z,959.27
2018-03-03T03:08:50.003Z,959.23
2018-03-03T03:09:49.919Z,959.22
2018-03-03T03:10:49.828Z,959.22
2018-03-03T03:11:49.767Z,959.15
2018-03-03T03:12:49.665Z,959.07
2018-03-03T03:13:49.584Z,959.07
2018-03-03T03:14:49.491Z,959.01
2018-03-03T03:15:49.414Z,959.06
2018-03-03T03:16:49.326Z,959.03
2018-03-03T03:17:49.244Z,959.01
2018-03-03T03:18:49.152Z,958.96
2018-03-03T03:19:49.075Z,958.97
2018-03-03T03:20:48.990Z,958.99
2018-03-03T03:21:48.905Z,958.97
2018-03-03T03:22:48.809Z,958.97
2018-03-03T03:23:48.737Z,958.95
2018-03-03T03:24:48.646Z,958.87
2018-03-03T03:25:48.570Z,958.86
2018-03-03T03:26:48.476Z,958.84
2018-03-03T03:27:48.402Z,958.81
2018-03-03T03:28:48.307Z,958.74
2018-03-03T03:29:48.233Z,958.74
2018-03-03T03:30:48.138Z,958.78
2018-03-03T03:31:48.060Z,958.77
2018-03-03T03:32:47.969Z,958.75
2018-03-03T03:33:47.891Z,958.79
2018-03-03T03:34:47.810Z,958.78
2018-03-03T03:35:47.720Z,958.82
2018-03-03T03:36:47.637Z,958.81
2018-03-03T03:37:47.553Z,958.82
2018-03-03T03:38:47.458Z,958.83
2018-03-03T03:39:47.383Z,958.81
2018-03-03T03:40:47.298Z,958.79
2018-03-03T03:41:47.218Z,958.77
2018-03-03T03:42:47.123Z,958.76
2018-03-03T03:43:47.049Z,958.80
2018-03-03T03:44:46.955Z,958.80
2018-03-03T03:45:46.877Z,958.78
2018-03-03T03:46:46.817Z,958.77
2018-03-03T03:47:46.710Z,958.75
2018-03-03T03:48:46.616Z,958.71
2018-03-03T03:49:46.538Z,958.75
2018-03-03T03:50:46.448Z,958.74
2018-03-03T03:51:46.371Z,958.73
2018-03-03T03:52:46.280Z,958.73
2018-03-03T03:53:46.200Z,958.74
2018-03-03T03:54:46.108Z,958.74
2018-03-03T03:55:46.031Z,958.67
2018-03-03T03:56:45.942Z,958.62
2018-03-03T03:57:45.862Z,958.62
2018-03-03T03:58:45.771Z,958.61
2018-03-03T03:59:45.701Z,958.59
2018-03-03T04:00:45.605Z,958.58
2018-03-03T04:01:45.524Z,958.55
2018-03-03T04:02:45.434Z,958.52
2018-03-03T04:03:45.355Z,958.52
2018-03-03T04:04:45.269Z,958.48
2018-03-03T04:05:45.187Z,958.47
2018-03-03T04:06:45.103Z,958.46
2018-03-03T04:07:45.019Z,958.42
2018-03-03T04:08:44.926Z,958.41
2018-03-03T04:09:44.849Z,958.43
2018-03-03T04:10:44.763Z,958.44
2018-03-03T04:11:44.670Z,958.44
2018-03-03T04:12:44.596Z,958.43
2018-03-03T04:13:44.502Z,958.43
2018-03-03T04:14:44.472Z,958.38
2018-03-03T04:15:44.338Z,958.35
2018-03-03T04:16:44.277Z,958.36
2018-03-03T04:17:44.170Z,958.31
2018-03-03T04:18:44.183Z,958.32
2018-03-03T04:19:44.000Z,958.33
2018-03-03T04:20:43.997Z,958.30
2018-03-03T04:21:43.826Z,958.37
2018-03-03T04:22:43.755Z,958.36
2018-03-03T04:23:43.661Z,958.33
2018-03-03T04:24:43.584Z,958.34
2018-03-03T04:25:43.489Z,958.35
2018-03-03T04:26:43.420Z,958.38
2018-03-03T04:27:43.320Z,958.35
2018-03-03T04:28:43.331Z,958.31
2018-03-03T04:29:43.149Z,958.25
2018-03-03T04:30:43.143Z,958.20
2018-03-03T04:31:42.985Z,958.17
2018-03-03T04:32:42.948Z,958.19
2018-03-03T04:33:42.808Z,958.18
2018-03-03T04:34:42.755Z,958.26
2018-03-03T04:35:42.645Z,958.23
2018-03-03T04:36:42.667Z,958.23
2018-03-03T04:37:42.481Z,958.23
2018-03-03T04:38:42.478Z,958.20
2018-03-03T04:39:42.302Z,958.19
2018-03-03T04:40:42.283Z,958.12
2018-03-03T04:41:42.135Z,958.11
2018-03-03T04:42:42.093Z,958.13
2018-03-03T04:43:41.967Z,958.09
2018-03-03T04:44:41.899Z,958.14
2018-03-03T04:45:41.800Z,958.19
2018-03-03T04:46:41.724Z,958.18
2018-03-03T04:47:41.629Z,958.23
2018-03-03T04:48:41.552Z,958.23
2018-03-03T04:49:41.462Z,958.22
2018-03-03T04:50:41.389Z,958.17
2018-03-03T04:51:41.291Z,958.13
2018-03-03T04:52:41.236Z,958.10
2018-03-03T04:53:41.121Z,958.16
2018-03-03T04:54:41.046Z,958.15
2018-03-03T04:55:40.954Z,958.15
2018-03-03T04:56:40.958Z,958.15
2018-03-03T04:57:40.784Z,958.14
2018-03-03T04:58:40.704Z,958.15
2018-03-03T04:59:40.615Z,958.15
2018-03-03T05:00:40.541Z,958.13
2018-03-03T05:01:40.445Z,958.12
2018-03-03T05:02:40.388Z,958.11
2018-03-03T05:03:40.276Z,958.12
2018-03-03T05:04:40.292Z,958.10
2018-03-03T05:05:40.110Z,958.10
2018-03-03T05:06:40.030Z,958.08
2018-03-03T05:07:39.941Z,958.09
2018-03-03T05:08:39.861Z,958.09
2018-03-03T05:09:39.768Z,958.07
2018-03-03T05:10:39.689Z,958.03
2018-03-03T05:11:39.600Z,958.04
2018-03-03T05:12:39.522Z,958.01
2018-03-03T05:13:39.433Z,957.99
2018-03-03T05:14:39.434Z,958.01
2018-03-03T05:15:39.264Z,957.97
2018-03-03T05:16:39.243Z,958.01
2018-03-03T05:17:39.093Z,958.04
2018-03-03T05:18:39.050Z,958.01
2018-03-03T05:19:38.923Z,957.97
2018-03-03T05:20:38.859Z,957.96
2018-03-03T05:21:38.757Z,957.94
2018-03-03T05:22:38.769Z,957.97
2018-03-03T05:23:38.584Z,958.00
2018-03-03T05:24:38.578Z,958.02
2018-03-03T05:25:38.417Z,957.99
2018-03-03T05:26:38.343Z,957.98
2018-03-03T05:27:38.248Z,957.97
2018-03-03T05:28:38.172Z,957.99
2018-03-03T05:29:38.072Z,957.98
2018-03-03T05:30:38.003Z,957.98
2018-03-03T05:31:37.918Z,957.99
2018-03-03T05:32:37.826Z,957.96
2018-03-03T05:33:37.749Z,957.96
2018-03-03T05:34:37.657Z,957.95
2018-03-03T05:35:37.618Z,957.88
2018-03-03T05:36:37.496Z,957.88
2018-03-03T05:37:37.407Z,957.88
2018-03-03T05:38:37.323Z,957.90
2018-03-03T05:39:37.244Z,957.89
2018-03-03T05:40:37.151Z,957.90
2018-03-03T05:41:37.073Z,957.88
2018-03-03T05:42:36.982Z,957.90
2018-03-03T05:43:36.959Z,957.91
2018-03-03T05:44:36.812Z,957.88
2018-03-03T05:45:36.737Z,957.87
2018-03-03T05:46:36.643Z,957.86
2018-03-03T05:47:36.566Z,957.86
2018-03-03T05:48:36.482Z,957.88
2018-03-03T05:49:36.402Z,957.79
2018-03-03T05:50:36.309Z,957.80
2018-03-03T05:51:36.296Z,957.81
2018-03-03T05:52:36.138Z,957.81
2018-03-03T05:53:36.061Z,957.82
2018-03-03T05:54:35.965Z,957.82
2018-03-03T05:55:35.890Z,957.79
2018-03-03T05:56:35.799Z,957.79
2018-03-03T05:57:35.820Z,957.79
2018-03-03T05:58:35.630Z,957.78
2018-03-03T05:59:35.557Z,957.79
2018-03-03T06:00:35.459Z,957.78
2018-03-03T06:01:35.383Z,957.79
2018-03-03T06:02:35.291Z,957.80
2018-03-03T06:03:35.211Z,957.80
2018-03-03T06:04:35.123Z,957.77
2018-03-03T06:05:35.050Z,957.73
2018-03-03T06:06:34.954Z,957.71
2018-03-03T06:07:34.877Z,957.74
2018-03-03T06:08:34.790Z,957.70
2018-03-03T06:09:34.709Z,957.76
2018-03-03T06:10:34.615Z,957.77
2018-03-03T06:11:34.584Z,957.81
2018-03-03T06:12:34.449Z,957.84
2018-03-03T06:13:34.369Z,957.90
2018-03-03T06:14:34.280Z,957.87
2018-03-03T06:15:34.300Z,957.89
2018-03-03T06:16:34.109Z,957.88
2018-03-03T06:17:34.109Z,957.88
2018-03-03T06:18:33.943Z,957.90
2018-03-03T06:19:33.865Z,957.88
2018-03-03T06:20:33.781Z,957.87
2018-03-03T06:21:33.726Z,957.87
2018-03-03T06:22:33.603Z,957.82
2018-03-03T06:23:33.637Z,957.82
2018-03-03T06:24:33.432Z,957.82
2018-03-03T06:25:33.445Z,957.82
2018-03-03T06:26:33.265Z,957.80
2018-03-03T06:27:33.190Z,957.79
2018-03-03T06:28:33.101Z,957.79
2018-03-03T06:29:33.023Z,957.78
2018-03-03T06:30:32.941Z,957.77
2018-03-03T06:31:32.854Z,957.73
2018-03-03T06:32:32.759Z,957.69
2018-03-03T06:33:32.682Z,957.67
2018-03-03T06:34:32.592Z,957.70
2018-03-03T06:35:32.516Z,957.66
2018-03-03T06:36:32.430Z,957.67
2018-03-03T06:37:32.380Z,957.66
2018-03-03T06:38:32.298Z,957.61
2018-03-03T06:39:32.169Z,957.61
2018-03-03T06:40:32.109Z,957.60
2018-03-03T06:41:32.010Z,957.62
2018-03-03T06:42:32.021Z,957.64
2018-03-03T06:43:31.828Z,957.69
2018-03-03T06:44:31.828Z,957.68
2018-03-03T06:45:31.667Z,957.69
2018-03-03T06:46:31.634Z,957.72
2018-03-03T06:47:31.495Z,957.75
2018-03-03T06:48:31.446Z,957.75
2018-03-03T06:49:31.326Z,957.76
2018-03-03T06:50:31.354Z,957.80
2018-03-03T06:51:31.157Z,957.79
2018-03-03T06:52:31.166Z,957.77
2018-03-03T06:53:30.987Z,957.77
2018-03-03T06:54:30.973Z,957.77
2018-03-03T06:55:30.822Z,957.73
2018-03-03T06:56:30.781Z,957.76
2018-03-03T06:57:30.649Z,957.72
2018-03-03T06:58:30.589Z,957.73
2018-03-03T06:59:30.477Z,957.73
2018-03-03T07:00:30.500Z,957.70
2018-03-03T07:01:30.322Z,957.72
2018-03-03T07:02:30.318Z,957.68
2018-03-03T07:03:30.155Z,957.71
2018-03-03T07:04:30.070Z,957.72
2018-03-03T07:05:29.979Z,957.72
2018-03-03T07:06:29.923Z,957.70
2018-03-03T07:07:29.807Z,957.71
2018-03-03T07:08:29.836Z,957.70
2018-03-03T07:09:29.641Z,957.72
2018-03-03T07:10:29.643Z,957.73
2018-03-03T07:11:29.469Z,957.73
2018-03-03T07:12:29.451Z,957.72
2018-03-03T07:13:29.308Z,957.70
2018-03-03T07:14:29.262Z,957.75
2018-03-03T07:15:29.138Z,957.76
2018-03-03T07:16:29.066Z,957.73
2018-03-03T07:17:28.967Z,957.73
2018-03-03T07:18:28.978Z,957.74
2018-03-03T07:19:28.800Z,957.73
2018-03-03T07:20:28.792Z,957.73
2018-03-03T07:21:28.625Z,957.69
2018-03-03T07:22:28.656Z,957.72
2018-03-03T07:23:28.463Z,957.70
2018-03-03T07:24:28.408Z,957.69
2018-03-03T07:25:28.290Z,957.66
2018-03-03T07:26:28.309Z,957.71
2018-03-03T07:27:28.126Z,957.70
2018-03-03T07:28:28.127Z,957.70
2018-03-03T07:29:27.955Z,957.73
2018-03-03T07:30:27.930Z,957.72
2018-03-03T07:31:27.789Z,957.72
2018-03-03T07:32:27.740Z,957.71
2018-03-03T07:33:27.617Z,957.73
2018-03-03T07:34:27.649Z,957.72
2018-03-03T07:35:27.450Z,957.73
2018-03-03T07:36:27.456Z,957.76
2018-03-03T07:37:27.283Z,957.80
2018-03-03T07:38:27.265Z,957.78
2018-03-03T07:39:27.114Z,957.78
2018-03-03T07:40:27.074Z,957.77
2018-03-03T07:41:26.947Z,957.78
2018-03-03T07:42:26.945Z,957.77
2018-03-03T07:43:26.784Z,957.80
2018-03-03T07:44:26.704Z,957.82
2018-03-03T07:45:26.697Z,957.82
2018-03-03T07:46:26.526Z,957.77
2018-03-03T07:47:26.505Z,957.82
2018-03-03T07:48:26.364Z,957.83
2018-03-03T07:49:26.313Z,957.83
2018-03-03T07:50:26.200Z,957.83
2018-03-03T07:51:26.226Z,957.88
2018-03-03T07:52:26.027Z,957.84
2018-03-03T07:53:25.951Z,957.87
2018-03-03T07:54:25.935Z,957.86
2018-03-03T07:55:25.795Z,957.86
2018-03-03T07:56:25.746Z,957.85
2018-03-03T07:57:25.682Z,957.89
2018-03-03T07:58:25.550Z,957.89
2018-03-03T07:59:25.445Z,957.83
2018-03-03T08:00:25.464Z,957.84
2018-03-03T08:01:25.270Z,957.84
2018-03-03T08:02:25.275Z,957.84
2018-03-03T08:03:25.101Z,957.88
2018-03-03T08:04:25.075Z,957.89
2018-03-03T08:05:24.938Z,957.86
2018-03-03T08:06:24.888Z,957.83
2018-03-03T08:07:24.767Z,957.84
2018-03-03T08:08:24.798Z,957.85
2018-03-03T08:09:24.598Z,957.80
2018-03-03T08:10:24.606Z,957.81
2018-03-03T08:11:24.437Z,957.81
2018-03-03T08:12:24.415Z,957.87
2018-03-03T08:13:24.265Z,957.86
2018-03-03T08:14:24.223Z,957.87
2018-03-03T08:15:24.100Z,957.83
2018-03-03T08:16:24.130Z,957.87
2018-03-03T08:17:23.932Z,957.88
2018-03-03T08:18:23.942Z,957.83
2018-03-03T08:19:23.763Z,957.85
2018-03-03T08:20:23.750Z,957.85
2018-03-03T08:21:23.595Z,957.81
2018-03-03T08:22:23.563Z,957.80
2018-03-03T08:23:23.429Z,957.81
2018-03-03T08:24:23.365Z,957.78
2018-03-03T08:25:23.272Z,957.78
2018-03-03T08:26:23.279Z,957.76
2018-03-03T08:27:23.096Z,957.77
2018-03-03T08:28:23.088Z,957.77
2018-03-03T08:29:22.926Z,957.78
2018-03-03T08:30:22.895Z,957.76
2018-03-03T08:31:22.757Z,957.74
2018-03-03T08:32:22.702Z,957.73
2018-03-03T08:33:22.592Z,957.70
2018-03-03T08:34:22.617Z,957.65
2018-03-03T08:35:22.428Z,957.71
2018-03-03T08:36:22.420Z,957.67
2018-03-03T08:37:22.259Z,957.71
2018-03-03T08:38:22.230Z,957.68
2018-03-03T08:39:22.093Z,957.70
2018-03-03T08:40:22.037Z,957.70
2018-03-03T08:41:21.926Z,957.70
2018-03-03T08:42:21.947Z,957.69
2018-03-03T08:43:21.761Z,957.69
2018-03-03T08:44:21.756Z,957.69
2018-03-03T08:45:21.592Z,957.69
2018-03-03T08:46:21.566Z,957.73
2018-03-03T08:47:21.427Z,957.73
2018-03-03T08:48:21.376Z,957.71
2018-03-03T08:49:21.260Z,957.72
2018-03-03T08:50:21.282Z,957.77
2018-03-03T08:51:21.103Z,957.72
2018-03-03T08:52:21.092Z,957.76
2018-03-03T08:53:20.925Z,957.76
2018-03-03T08:54:20.900Z,957.75
2018-03-03T08:55:20.764Z,957.73
2018-03-03T08:56:20.710Z,957.78
2018-03-03T08:57:20.591Z,957.75
2018-03-03T08:58:20.626Z,957.78
2018-03-03T08:59:20.427Z,957.75
2018-03-03T09:00:20.427Z,957.77
2018-03-03T09:01:20.257Z,957.75
2018-03-03T09:02:20.237Z,957.77
2018-03-03T09:03:20.094Z,957.75
2018-03-03T09:04:20.043Z,957.74
2018-03-03T09:05:19.922Z,957.72
2018-03-03T09:06:19.955Z,957.75
2018-03-03T09:07:19.760Z,957.72
2018-03-03T09:08:19.767Z,957.73
2018-03-03T09:09:19.590Z,957.71
2018-03-03T09:10:19.570Z,957.69
2018-03-03T09:11:19.442Z,957.72
2018-03-03T09:12:19.380Z,957.69
2018-03-03T09:13:19.271Z,957.67
2018-03-03T09:14:19.292Z,957.66
2018-03-03T09:15:19.094Z,957.64
2018-03-03T09:16:19.101Z,957.63
2018-03-03T09:17:18.928Z,957.62
2018-03-03T09:18:18.908Z,957.65
2018-03-03T09:19:18.769Z,957.58
2018-03-03T09:20:18.716Z,957.56
2018-03-03T09:21:18.595Z,957.54
2018-03-03T09:22:18.624Z,957.54
2018-03-03T09:23:18.478Z,957.59
2018-03-03T09:24:18.349Z,957.58
2018-03-03T09:25:18.266Z,957.54
2018-03-03T09:26:20.295Z,957.56
2018-03-03T09:27:18.102Z,957.58
2018-03-03T09:28:18.021Z,957.56
2018-03-03T09:29:17.965Z,957.55
2018-03-03T09:30:17.855Z,957.57
2018-03-03T09:31:17.773Z,957.51
2018-03-03T09:32:17.771Z,957.51
2018-03-03T09:33:17.601Z,957.50
2018-03-03T09:34:17.578Z,957.51
2018-03-03T09:35:17.438Z,957.47
2018-03-03T09:36:17.388Z,957.50
2018-03-03T09:37:17.268Z,957.51
2018-03-03T09:38:17.296Z,957.51
2018-03-03T09:39:17.108Z,957.54
2018-03-03T09:40:17.105Z,957.57
2018-03-03T09:41:16.940Z,957.54
2018-03-03T09:42:16.917Z,957.56
2018-03-03T09:43:16.781Z,957.53
2018-03-03T09:44:16.721Z,957.51
2018-03-03T09:45:16.604Z,957.55
2018-03-03T09:46:16.533Z,957.54
2018-03-03T09:47:16.447Z,957.58
2018-03-03T09:48:16.450Z,957.55
2018-03-03T09:49:16.277Z,957.56
2018-03-03T09:50:16.251Z,957.53
2018-03-03T09:51:16.114Z,957.54
2018-03-03T09:52:16.047Z,957.53
2018-03-03T09:53:15.954Z,957.51
2018-03-03T09:54:15.968Z,957.52
2018-03-03T09:55:15.784Z,957.51
2018-03-03T09:56:15.776Z,957.48
2018-03-03T09:57:15.619Z,957.49
2018-03-03T09:58:15.583Z,957.50
2018-03-03T09:59:15.454Z,957.50
2018-03-03T10:00:15.392Z,957.48
2018-03-03T10:01:15.291Z,957.54
2018-03-03T10:02:15.306Z,957.55
2018-03-03T10:03:15.132Z,957.53
2018-03-03T10:04:15.111Z,957.50
2018-03-03T10:05:14.963Z,957.51
2018-03-03T10:06:14.920Z,957.51
2018-03-03T10:07:14.799Z,957.54
2018-03-03T10:08:14.830Z,957.53
2018-03-03T10:09:14.633Z,957.58
2018-03-03T10:10:14.639Z,957.56
2018-03-03T10:11:14.470Z,957.60
2018-03-03T10:12:14.446Z,957.57
2018-03-03T10:13:15.281Z,957.61
2018-03-03T10:14:14.254Z,957.54
2018-03-03T10:15:14.140Z,957.58
2018-03-03T10:16:14.209Z,957.55
2018-03-03T10:17:13.976Z,957.50
2018-03-03T10:18:13.973Z,957.47
2018-03-03T10:19:13.811Z,957.43
2018-03-03T10:20:13.781Z,957.43
2018-03-03T10:21:13.650Z,957.46
2018-03-03T10:22:13.588Z,957.45
2018-03-03T10:23:13.487Z,957.40
2018-03-03T10:24:13.499Z,957.41
2018-03-03T10:25:13.325Z,957.41
2018-03-03T10:26:13.309Z,957.41
2018-03-03T10:27:13.163Z,957.43
2018-03-03T10:28:13.093Z,957.42
2018-03-03T10:29:12.999Z,957.40
2018-03-03T10:30:13.027Z,957.46
2018-03-03T10:31:12.831Z,957.48
2018-03-03T10:32:12.834Z,957.46
2018-03-03T10:33:12.674Z,957.42
2018-03-03T10:34:12.645Z,957.45
2018-03-03T10:35:12.512Z,957.42
2018-03-03T10:36:12.451Z,957.42
2018-03-03T10:37:12.358Z,957.41
2018-03-03T10:38:12.362Z,957.40
2018-03-03T10:39:12.190Z,957.40
2018-03-03T10:40:12.174Z,957.41
2018-03-03T10:41:12.031Z,957.42
2018-03-03T10:42:11.978Z,957.44
2018-03-03T10:43:11.871Z,957.46
2018-03-03T10:44:11.892Z,957.43
2018-03-03T10:45:11.710Z,957.38
2018-03-03T10:46:11.694Z,957.38
2018-03-03T10:47:11.551Z,957.36
2018-03-03T10:48:11.517Z,957.40
2018-03-03T10:49:11.387Z,957.32
2018-03-03T10:50:11.414Z,957.33
2018-03-03T10:51:11.229Z,957.33
2018-03-03T10:52:11.222Z,957.29
2018-03-03T10:53:11.071Z,957.29
2018-03-03T10:54:11.034Z,957.31
2018-03-03T10:55:10.916Z,957.31
2018-03-03T10:56:10.945Z,957.33
2018-03-03T10:57:10.754Z,957.30
2018-03-03T10:58:10.754Z,957.28
2018-03-03T10:59:10.597Z,957.28
2018-03-03T11:00:10.566Z,957.33
2018-03-03T11:01:10.435Z,957.29
2018-03-03T11:02:10.365Z,957.28
2018-03-03T11:03:10.278Z,957.29
2018-03-03T11:04:10.274Z,957.24
2018-03-03T11:05:10.119Z,957.31
2018-03-03T11:06:10.090Z,957.25
2018-03-03T11:07:09.963Z,957.24
2018-03-03T11:08:09.999Z,957.24
2018-03-03T11:09:09.802Z,957.24
2018-03-03T11:10:09.806Z,957.24
2018-03-03T11:11:09.651Z,957.22
2018-03-03T11:12:09.614Z,957.20
2018-03-03T11:13:09.488Z,957.23
2018-03-03T11:14:09.524Z,957.20
2018-03-03T11:15:09.328Z,957.25
2018-03-03T11:16:09.334Z,957.19
2018-03-03T11:17:09.173Z,957.19
2018-03-03T11:18:09.147Z,957.17
2018-03-03T11:19:09.018Z,957.15
2018-03-03T11:20:08.949Z,957.19
2018-03-03T11:21:08.854Z,957.16
2018-03-03T11:22:08.861Z,957.17
2018-03-03T11:23:08.699Z,957.15
2018-03-03T11:24:08.669Z,957.13
2018-03-03T11:25:08.536Z,957.10
2018-03-03T11:26:08.480Z,957.09
2018-03-03T11:27:08.380Z,957.13
2018-03-03T11:28:08.388Z,957.13
2018-03-03T11:29:08.221Z,957.10
2018-03-03T11:30:08.197Z,957.14
2018-03-03T11:31:08.064Z,957.19
2018-03-03T11:32:07.984Z,957.16
2018-03-03T11:33:07.909Z,957.18
2018-03-03T11:34:07.963Z,957.15
2018-03-03T11:35:07.746Z,957.16
2018-03-03T11:36:07.770Z,957.15
2018-03-03T11:37:07.594Z,957.13
2018-03-03T11:38:07.518Z,957.11
2018-03-03T11:39:07.431Z,957.15
2018-03-03T11:40:07.388Z,957.12
2018-03-03T11:41:07.278Z,957.11
2018-03-03T11:42:07.298Z,957.10
2018-03-03T11:43:07.118Z,957.13
2018-03-03T11:44:07.108Z,957.07
2018-03-03T11:45:06.970Z,957.07
2018-03-03T11:46:06.916Z,957.07
2018-03-03T11:47:06.800Z,957.07
2018-03-03T11:48:06.852Z,957.11
2018-03-03T11:49:06.643Z,957.11
2018-03-03T11:50:06.637Z,957.09
2018-03-03T11:51:06.485Z,957.08
2018-03-03T11:52:06.446Z,957.10
2018-03-03T11:53:06.327Z,957.12
2018-03-03T11:54:06.357Z,957.10
2018-03-03T11:55:06.171Z,957.12
2018-03-03T11:56:06.165Z,957.13
2018-03-03T11:57:06.014Z,957.13
2018-03-03T11:58:05.937Z,957.13
2018-03-03T11:59:06.426Z,957.15
2018-03-03T12:00:05.775Z,957.10
2018-03-03T12:01:05.794Z,957.10
2018-03-03T12:02:05.612Z,957.09
2018-03-03T12:03:05.605Z,957.08
2018-03-03T12:04:05.455Z,957.05
2018-03-03T12:05:05.410Z,957.08
2018-03-03T12:06:05.295Z,957.06
2018-03-03T12:07:05.325Z,957.13
2018-03-03T12:08:05.138Z,957.06
2018-03-03T12:09:05.136Z,957.10
2018-03-03T12:10:04.979Z,957.12
2018-03-03T12:11:04.939Z,957.13
2018-03-03T12:12:04.818Z,957.13
2018-03-03T12:13:04.851Z,957.14
2018-03-03T12:14:04.659Z,957.15
2018-03-03T12:15:04.668Z,957.11
2018-03-03T12:16:04.505Z,957.12
2018-03-03T12:17:04.468Z,957.11
2018-03-03T12:18:04.343Z,957.13
2018-03-03T12:19:04.380Z,957.10
2018-03-03T12:20:04.184Z,957.11
2018-03-03T12:21:04.194Z,957.12
2018-03-03T12:22:04.025Z,957.06
2018-03-03T12:23:03.997Z,957.11
2018-03-03T12:24:03.865Z,957.06
2018-03-03T12:25:03.918Z,957.07
2018-03-03T12:26:03.705Z,957.10
2018-03-03T12:27:03.638Z,957.08